createdAt,value
2018-11-07T00:02:31.185Z,12.97
2018-11-07T00:05:06.187Z,12.30
2018-11-07T00:07:40.382Z,13.13
2018-11-07T00:10:14.945Z,13.50
2018-11-07T00:12:49.285Z,12.43
2018-11-07T00:15:23.578Z,13.43
2018-11-07T00:17:57.986Z,11.93
2018-11-07T00:20:32.406Z,11.37
2018-11-07T00:23:06.798Z,12.80
2018-11-07T00:25:41.149Z,13.53
2018-11-07T00:28:15.302Z,13.37
2018-11-07T00:30:49.782Z,13.27
2018-11-07T00:33:24.008Z,12.37
2018-11-07T00:35:58.409Z,12.47
2018-11-07T00:38:32.614Z,12.07
2018-11-07T00:41:06.749Z,10.83
2018-11-07T00:43:40.887Z,11.47
2018-11-07T00:46:15.338Z,10.83
2018-11-07T00:48:49.605Z,11.77
2018-11-07T00:51:23.950Z,11.83
2018-11-07T00:53:58.261Z,11.43
2018-11-07T00:56:32.548Z,11.63
2018-11-07T00:59:06.957Z,11.73
2018-11-07T01:01:41.306Z,11.20
2018-11-07T01:04:15.628Z,10.87
2018-11-07T01:06:49.981Z,11.57
2018-11-07T01:09:24.444Z,12.17
2018-11-07T01:11:58.932Z,13.37
2018-11-07T01:14:33.094Z,14.43
2018-11-07T01:17:07.422Z,13.63
2018-11-07T01:19:41.713Z,13.27
2018-11-07T01:22:16.072Z,12.73
2018-11-07T01:24:50.486Z,13.03
2018-11-07T01:27:24.730Z,13.27
2018-11-07T01:29:58.906Z,13.60
2018-11-07T01:32:33.179Z,13.10
2018-11-07T01:35:07.658Z,12.53
2018-11-07T01:37:41.849Z,13.07
2018-11-07T01:40:16.061Z,12.93
2018-11-07T01:42:50.333Z,12.40
2018-11-07T01:45:24.717Z,12.43
2018-11-07T01:47:58.942Z,13.07
2018-11-07T01:50:33.224Z,12.37
2018-11-07T01:53:07.354Z,11.80
2018-11-07T01:55:41.714Z,11.67
2018-11-07T01:58:15.988Z,12.17
2018-11-07T02:00:50.263Z,11.47
2018-11-07T02:03:24.588Z,11.97
2018-11-07T02:05:58.929Z,11.53
2018-11-07T02:08:33.229Z,11.03
2018-11-07T02:11:07.513Z,12.10
2018-11-07T02:13:41.778Z,11.73
2018-11-07T02:16:16.230Z,10.67
2018-11-07T02:18:50.606Z,10.83
2018-11-07T02:21:25.030Z,10.50
2018-11-07T02:23:59.544Z,11.00
2018-11-07T02:26:33.878Z,9.90
2018-11-07T02:29:12.326Z,10.67
2018-11-07T02:31:47.246Z,10.03
2018-11-07T02:34:21.518Z,9.93
2018-11-07T02:36:55.727Z,10.90
2018-11-07T02:39:29.986Z,10.53
2018-11-07T02:42:04.355Z,10.47
2018-11-07T02:44:39.743Z,10.37
2018-11-07T02:47:13.899Z,9.67
2018-11-07T02:49:48.062Z,10.57
2018-11-07T02:52:22.231Z,11.57
2018-11-07T02:54:56.706Z,10.73
2018-11-07T02:57:30.959Z,11.40
2018-11-07T03:00:07.366Z,11.07
2018-11-07T03:02:41.541Z,11.27
2018-11-07T03:05:15.899Z,13.10
2018-11-07T03:07:50.218Z,12.13
2018-11-07T03:10:24.403Z,11.17
2018-11-07T03:12:58.627Z,10.20
2018-11-07T03:15:33.061Z,10.13
2018-11-07T03:18:07.413Z,10.33
2018-11-07T03:20:41.686Z,10.90
2018-11-07T03:23:15.840Z,9.43
2018-11-07T03:25:50.098Z,9.73
2018-11-07T03:28:24.394Z,10.10
2018-11-07T03:30:58.821Z,11.00
2018-11-07T03:33:33.185Z,10.27
2018-11-07T03:36:07.444Z,10.33
2018-11-07T03:38:41.891Z,10.13
2018-11-07T03:41:16.094Z,9.70
2018-11-07T03:43:50.341Z,9.57
2018-11-07T03:46:24.709Z,10.20
2018-11-07T03:48:58.956Z,9.90
2018-11-07T03:51:33.126Z,10.63
2018-11-07T03:54:07.494Z,10.43
2018-11-07T03:56:41.690Z,9.60
2018-11-07T03:59:15.918Z,9.47
2018-11-07T04:01:50.098Z,9.33
2018-11-07T04:04:24.483Z,9.90
2018-11-07T04:06:58.805Z,9.83
2018-11-07T04:09:32.962Z,9.33
2018-11-07T04:12:07.293Z,9.20
2018-11-07T04:14:41.637Z,9.10
2018-11-07T04:17:15.994Z,9.27
2018-11-07T04:19:50.298Z,8.87
2018-11-07T04:22:24.734Z,9.40
2018-11-07T04:24:59.058Z,8.77
2018-11-07T04:27:33.505Z,9.43
2018-11-07T04:30:09.747Z,9.47
2018-11-07T04:32:43.924Z,10.10
2018-11-07T04:35:18.294Z,9.30
2018-11-07T04:37:52.552Z,9.90
2018-11-07T04:40:26.703Z,9.90
2018-11-07T04:43:00.998Z,8.63
2018-11-07T04:45:35.398Z,8.90
2018-11-07T04:48:09.627Z,10.20
2018-11-07T04:50:43.874Z,9.97
2018-11-07T04:53:18.278Z,8.97
2018-11-07T04:55:52.515Z,8.37
2018-11-07T04:58:26.728Z,9.00
2018-11-07T05:01:00.969Z,8.37
2018-11-07T05:03:35.594Z,8.67
2018-11-07T05:06:09.728Z,8.47
2018-11-07T05:08:44.230Z,8.57
2018-11-07T05:11:18.542Z,9.58
2018-11-07T05:13:52.730Z,8.83
2018-11-07T05:16:27.030Z,8.10
2018-11-07T05:19:01.255Z,8.30
2018-11-07T05:21:35.601Z,8.57
2018-11-07T05:24:09.986Z,7.17
2018-11-07T05:26:44.358Z,8.10
2018-11-07T05:29:18.730Z,7.87
2018-11-07T05:31:52.905Z,8.13
2018-11-07T05:34:27.242Z,8.27
2018-11-07T05:37:01.425Z,8.67
2018-11-07T05:39:35.850Z,8.10
2018-11-07T05:42:10.066Z,8.53
2018-11-07T05:44:44.342Z,9.47
2018-11-07T05:47:18.749Z,10.00
2018-11-07T05:49:53.190Z,8.57
2018-11-07T05:52:28.162Z,8.93
2018-11-07T05:55:02.407Z,8.27
2018-11-07T05:57:36.686Z,8.30
2018-11-07T06:00:11.922Z,8.57
2018-11-07T06:02:46.162Z,8.00
2018-11-07T06:05:20.262Z,9.70
2018-11-07T06:07:54.522Z,8.37
2018-11-07T06:10:28.878Z,8.13
2018-11-07T06:13:03.027Z,8.47
2018-11-07T06:15:37.201Z,8.37
2018-11-07T06:18:11.630Z,9.07
2018-11-07T06:20:45.992Z,8.77
2018-11-07T06:23:20.426Z,8.33
2018-11-07T06:25:54.838Z,8.77
2018-11-07T06:28:29.096Z,9.00
2018-11-07T06:31:03.378Z,8.50
2018-11-07T06:33:37.574Z,8.57
2018-11-07T06:36:11.731Z,9.40
2018-11-07T06:38:45.858Z,7.60
2018-11-07T06:41:20.213Z,7.27
2018-11-07T06:43:54.499Z,7.60
2018-11-07T06:46:28.797Z,7.33
2018-11-07T06:49:03.050Z,8.03
2018-11-07T06:51:37.446Z,7.67
2018-11-07T06:54:11.782Z,7.17
2018-11-07T06:56:45.967Z,7.87
2018-11-07T06:59:20.358Z,8.60
2018-11-07T07:01:54.526Z,7.37
2018-11-07T07:04:28.730Z,7.40
2018-11-07T07:07:03.130Z,6.80
2018-11-07T07:09:37.335Z,7.13
2018-11-07T07:12:11.487Z,8.20
2018-11-07T07:14:45.778Z,8.00
2018-11-07T07:17:19.955Z,8.43
2018-11-07T07:19:54.062Z,8.20
2018-11-07T07:22:28.345Z,9.00
2018-11-07T07:25:02.691Z,7.50
2018-11-07T07:27:37.007Z,8.87
2018-11-07T07:30:13.039Z,8.90
2018-11-07T07:32:47.694Z,7.60
2018-11-07T07:35:21.914Z,9.03
2018-11-07T07:37:56.099Z,12.00
2018-11-07T07:40:30.366Z,10.17
2018-11-07T07:43:05.315Z,11.27
2018-11-07T07:45:39.641Z,8.57
2018-11-07T07:48:13.935Z,9.37
2018-11-07T07:50:48.318Z,9.07
2018-11-07T07:53:22.695Z,8.27
2018-11-07T07:55:56.834Z,8.77
2018-11-07T07:58:31.013Z,8.60
2018-11-07T08:01:05.349Z,7.53
2018-11-07T08:03:39.498Z,8.60
2018-11-07T08:06:13.653Z,7.90
2018-11-07T08:08:48.025Z,8.60
2018-11-07T08:11:22.166Z,9.07
2018-11-07T08:13:56.525Z,9.47
2018-11-07T08:16:30.750Z,9.00
2018-11-07T08:19:05.402Z,10.03
2018-11-07T08:21:39.764Z,9.03
2018-11-07T08:24:13.909Z,8.00
2018-11-07T08:26:48.185Z,8.47
2018-11-07T08:29:22.490Z,8.00
2018-11-07T08:31:56.817Z,7.90
2018-11-07T08:34:31.247Z,8.60
2018-11-07T08:37:05.603Z,7.27
2018-11-07T08:39:39.918Z,8.43
2018-11-07T08:42:14.494Z,6.67
2018-11-07T08:44:48.877Z,6.97
2018-11-07T08:47:22.990Z,7.13
2018-11-07T08:49:57.278Z,6.67
2018-11-07T08:52:31.610Z,6.13
2018-11-07T08:55:07.432Z,6.00
2018-11-07T08:57:41.611Z,8.20
2018-11-07T09:00:17.159Z,6.77
2018-11-07T09:02:51.505Z,5.87
2018-11-07T09:05:25.667Z,5.93
2018-11-07T09:07:59.933Z,5.43
2018-11-07T09:10:34.202Z,5.73
2018-11-07T09:13:08.507Z,5.33
2018-11-07T09:15:42.670Z,5.10
2018-11-07T09:18:16.782Z,5.67
2018-11-07T09:20:50.994Z,5.53
2018-11-07T09:23:25.266Z,5.10
2018-11-07T09:25:59.521Z,5.07
2018-11-07T09:28:33.666Z,5.03
2018-11-07T09:31:07.956Z,5.10
2018-11-07T09:33:42.178Z,5.10
2018-11-07T09:36:16.322Z,5.40
2018-11-07T09:38:50.590Z,5.13
2018-11-07T09:41:24.982Z,4.97
2018-11-07T09:43:59.188Z,5.00
2018-11-07T09:46:33.472Z,4.63
2018-11-07T09:49:07.773Z,4.80
2018-11-07T09:51:42.078Z,5.40
2018-11-07T09:54:16.530Z,5.13
2018-11-07T09:56:50.978Z,5.40
2018-11-07T09:59:25.283Z,5.33
2018-11-07T10:01:59.689Z,5.40
2018-11-07T10:04:34.070Z,4.83
2018-11-07T10:07:08.366Z,4.87
2018-11-07T10:09:42.581Z,4.70
2018-11-07T10:12:16.930Z,5.00
2018-11-07T10:14:51.101Z,5.27
2018-11-07T10:17:25.238Z,5.07
2018-11-07T10:19:59.638Z,5.13
2018-11-07T10:22:33.861Z,5.57
2018-11-07T10:25:08.726Z,5.50
2018-11-07T10:27:43.505Z,5.00
2018-11-07T10:30:18.889Z,5.10
2018-11-07T10:32:53.057Z,5.57
2018-11-07T10:35:27.347Z,4.63
2018-11-07T10:38:01.801Z,5.17
2018-11-07T10:40:35.895Z,5.63
2018-11-07T10:43:10.297Z,7.03
2018-11-07T10:45:44.588Z,17.97
2018-11-07T10:48:18.852Z,5.70
2018-11-07T10:50:53.219Z,5.97
2018-11-07T10:53:27.457Z,5.20
2018-11-07T10:56:01.814Z,4.60
2018-11-07T10:58:36.077Z,4.40
2018-11-07T11:01:11.530Z,4.67
2018-11-07T11:03:45.805Z,4.00
2018-11-07T11:06:20.213Z,4.50
2018-11-07T11:08:54.466Z,4.53
2018-11-07T11:11:28.898Z,4.30
2018-11-07T11:14:03.314Z,4.40
2018-11-07T11:16:37.533Z,4.27
2018-11-07T11:19:11.630Z,4.10
2018-11-07T11:21:46.079Z,4.57
2018-11-07T11:24:20.334Z,4.20
2018-11-07T11:26:54.920Z,5.90
2018-11-07T11:29:29.223Z,3.97
2018-11-07T11:32:03.391Z,3.87
2018-11-07T11:34:37.517Z,4.00
2018-11-07T11:37:11.663Z,3.83
2018-11-07T11:39:46.046Z,3.93
2018-11-07T11:42:20.434Z,3.63
2018-11-07T11:44:54.693Z,3.87
2018-11-07T11:47:29.098Z,3.73
2018-11-07T11:50:03.707Z,3.77
2018-11-07T11:52:38.000Z,4.07
2018-11-07T11:55:12.536Z,4.13
2018-11-07T11:57:47.241Z,4.17
2018-11-07T12:00:21.865Z,3.70
2018-11-07T12:02:56.166Z,4.33
2018-11-07T12:05:30.450Z,3.90
2018-11-07T12:08:04.701Z,3.97
2018-11-07T12:10:38.930Z,3.80
2018-11-07T12:13:13.258Z,4.17
2018-11-07T12:15:47.463Z,3.77
2018-11-07T12:18:21.770Z,3.80
2018-11-07T12:20:56.044Z,3.40
2018-11-07T12:23:30.162Z,3.37
2018-11-07T12:26:04.651Z,3.00
2018-11-07T12:28:39.046Z,3.33
2018-11-07T12:31:13.294Z,3.57
2018-11-07T12:33:48.116Z,3.10
2018-11-07T12:36:22.227Z,2.80
2018-11-07T12:38:56.482Z,4.10
2018-11-07T12:41:30.744Z,4.60
2018-11-07T12:44:05.058Z,3.73
2018-11-07T12:46:39.278Z,6.00
2018-11-07T12:49:13.623Z,3.73
2018-11-07T12:51:47.817Z,3.97
2018-11-07T12:54:22.253Z,5.13
2018-11-07T12:56:56.690Z,3.37
2018-11-07T12:59:31.021Z,4.20
2018-11-07T13:02:05.483Z,5.10
2018-11-07T13:04:39.725Z,3.80
2018-11-07T13:07:13.774Z,3.10
2018-11-07T13:09:47.906Z,3.23
2018-11-07T13:12:22.067Z,3.33
2018-11-07T13:14:56.333Z,3.93
2018-11-07T13:17:30.519Z,3.47
2018-11-07T13:20:06.578Z,4.70
2018-11-07T13:22:41.483Z,3.40
2018-11-07T13:25:16.185Z,2.90
2018-11-07T13:27:50.538Z,2.73
2018-11-07T13:30:24.665Z,3.27
2018-11-07T13:32:59.081Z,3.57
2018-11-07T13:35:33.298Z,3.30
2018-11-07T13:38:07.898Z,3.43
2018-11-07T13:40:41.877Z,2.93
2018-11-07T13:43:16.012Z,3.20
2018-11-07T13:45:50.329Z,3.23
2018-11-07T13:48:24.494Z,3.10
2018-11-07T13:50:58.882Z,2.93
2018-11-07T13:53:33.250Z,3.40
2018-11-07T13:56:07.426Z,2.83
2018-11-07T13:58:41.738Z,10.30
2018-11-07T14:01:16.039Z,5.27
2018-11-07T14:03:50.215Z,3.00
2018-11-07T14:06:24.694Z,13.10
2018-11-07T14:08:58.997Z,4.97
2018-11-07T14:11:33.154Z,3.70
2018-11-07T14:14:07.630Z,3.13
2018-11-07T14:16:41.811Z,3.83
2018-11-07T14:19:16.142Z,3.80
2018-11-07T14:21:50.447Z,3.37
2018-11-07T14:24:24.850Z,5.87
2018-11-07T14:26:59.448Z,3.03
2018-11-07T14:29:33.908Z,3.03
2018-11-07T14:32:08.180Z,2.97
2018-11-07T14:34:42.594Z,3.07
2018-11-07T14:37:16.899Z,3.17
2018-11-07T14:39:51.323Z,9.00
2018-11-07T14:42:26.292Z,5.77
2018-11-07T14:45:00.630Z,3.70
2018-11-07T14:47:35.006Z,31.10
2018-11-07T14:50:10.055Z,11.43
2018-11-07T14:52:44.393Z,15.27
2018-11-07T14:55:18.567Z,4.27
2018-11-07T14:57:52.761Z,3.70
2018-11-07T15:00:26.993Z,3.33
2018-11-07T15:03:01.190Z,3.40
2018-11-07T15:05:35.566Z,4.93
2018-11-07T15:08:09.954Z,6.43
2018-11-07T15:10:44.317Z,9.83
2018-11-07T15:13:18.694Z,7.57
2018-11-07T15:15:53.150Z,4.60
2018-11-07T15:18:27.558Z,10.43
2018-11-07T15:21:01.930Z,8.23
2018-11-07T15:23:36.240Z,5.73
2018-11-07T15:26:10.711Z,4.30
2018-11-07T15:28:44.905Z,5.17
2018-11-07T15:31:19.310Z,4.30
2018-11-07T15:33:53.718Z,3.33
2018-11-07T15:36:28.031Z,2.70
2018-11-07T15:39:02.293Z,3.30
2018-11-07T15:41:36.606Z,3.13
2018-11-07T15:44:11.118Z,3.03
2018-11-07T15:46:45.398Z,3.20
2018-11-07T15:49:19.858Z,3.03
2018-11-07T15:51:54.771Z,5.03
2018-11-07T15:54:29.189Z,3.40
2018-11-07T15:57:03.545Z,3.63
2018-11-07T15:59:37.698Z,3.10
2018-11-07T16:02:12.135Z,3.27
2018-11-07T16:04:46.402Z,3.23
2018-11-07T16:07:20.640Z,3.83
2018-11-07T16:09:54.903Z,3.37
2018-11-07T16:12:28.998Z,3.53
2018-11-07T16:15:03.658Z,3.33
2018-11-07T16:17:38.010Z,3.43
2018-11-07T16:20:16.694Z,4.10
2018-11-07T16:22:51.072Z,3.30
2018-11-07T16:25:25.377Z,3.10
2018-11-07T16:27:59.665Z,3.30
2018-11-07T16:30:33.870Z,3.30
2018-11-07T16:33:08.002Z,3.93
2018-11-07T16:35:42.158Z,4.87
2018-11-07T16:38:16.534Z,4.80
2018-11-07T16:40:50.833Z,5.40
2018-11-07T16:43:24.986Z,5.00
2018-11-07T16:45:59.253Z,4.43
2018-11-07T16:48:33.602Z,4.27
2018-11-07T16:51:07.846Z,4.50
2018-11-07T16:53:42.134Z,4.50
2018-11-07T16:56:16.481Z,4.10
2018-11-07T16:58:50.878Z,4.27
2018-11-07T17:01:25.173Z,3.93
2018-11-07T17:03:59.317Z,3.93
2018-11-07T17:06:33.582Z,3.70
2018-11-07T17:09:08.408Z,4.23
2018-11-07T17:11:42.690Z,3.90
2018-11-07T17:14:16.991Z,4.33
2018-11-07T17:16:51.238Z,4.67
2018-11-07T17:19:25.395Z,4.20
2018-11-07T17:21:59.546Z,3.87
2018-11-07T17:24:33.841Z,3.23
2018-11-07T17:27:07.886Z,2.80
2018-11-07T17:29:42.196Z,2.80
2018-11-07T17:32:16.313Z,2.47
2018-11-07T17:34:50.689Z,2.10
2018-11-07T17:37:25.117Z,2.43
2018-11-07T17:39:59.401Z,2.40
2018-11-07T17:42:33.607Z,3.13
2018-11-07T17:45:09.881Z,2.13
2018-11-07T17:47:44.317Z,2.03
2018-11-07T17:50:19.447Z,2.23
2018-11-07T17:52:55.558Z,2.30
2018-11-07T17:55:29.794Z,2.07
2018-11-07T17:58:03.949Z,2.23
2018-11-07T18:14:38.273Z,2.30
2018-11-07T18:17:12.712Z,1.80
2018-11-07T18:19:46.833Z,2.20
2018-11-07T18:22:21.022Z,2.10
2018-11-07T18:24:55.393Z,2.03
2018-11-07T18:27:29.830Z,2.10
2018-11-07T18:30:05.154Z,2.00
2018-11-07T18:32:39.706Z,2.20
2018-11-07T18:35:15.446Z,2.20
2018-11-07T18:37:49.465Z,2.17
2018-11-07T18:40:23.834Z,2.23
2018-11-07T18:42:58.109Z,2.03
2018-11-07T18:45:32.321Z,2.10
2018-11-07T18:48:06.586Z,2.60
2018-11-07T18:50:40.917Z,2.10
2018-11-07T18:53:15.166Z,2.07
2018-11-07T18:55:49.346Z,2.03
2018-11-07T18:58:23.861Z,2.40
2018-11-07T19:00:58.078Z,2.20
2018-11-07T19:03:32.610Z,2.00
2018-11-07T19:06:06.895Z,2.10
2018-11-07T19:08:41.178Z,2.30
2018-11-07T19:11:15.366Z,1.93
2018-11-07T19:13:49.542Z,1.73
2018-11-07T19:16:23.799Z,1.90
2018-11-07T19:18:58.130Z,2.20
2018-11-07T19:21:32.422Z,1.87
2018-11-07T19:24:06.675Z,1.57
2018-11-07T19:26:40.906Z,1.57
2018-11-07T19:29:15.242Z,1.90
2018-11-07T19:31:49.414Z,1.70
2018-11-07T19:34:23.554Z,1.80
2018-11-07T19:36:57.910Z,1.50
2018-11-07T19:39:32.242Z,1.60
2018-11-07T19:42:06.617Z,1.67
2018-11-07T19:44:40.854Z,1.70
2018-11-07T19:47:15.077Z,1.73
2018-11-07T19:49:49.361Z,1.63
2018-11-07T19:52:23.507Z,1.70
2018-11-07T19:54:57.845Z,1.50
2018-11-07T19:57:32.118Z,1.73
2018-11-07T20:00:08.738Z,1.60
2018-11-07T20:02:43.914Z,2.00
2018-11-07T20:05:18.261Z,1.60
2018-11-07T20:07:52.857Z,1.63
2018-11-07T20:10:27.246Z,2.20
2018-11-07T20:13:01.450Z,1.97
2018-11-07T20:15:35.702Z,2.10
2018-11-07T20:18:09.933Z,2.17
2018-11-07T20:20:44.252Z,2.10
2018-11-07T20:23:18.614Z,1.70
2018-11-07T20:25:52.937Z,2.27
2018-11-07T20:28:27.397Z,1.70
2018-11-07T20:31:01.658Z,1.70
2018-11-07T20:33:35.926Z,2.20
2018-11-07T20:36:10.233Z,2.30
2018-11-07T20:38:44.407Z,2.10
2018-11-07T20:41:18.566Z,1.87
2018-11-07T20:43:52.916Z,2.80
2018-11-07T20:46:27.071Z,2.03
2018-11-07T20:49:01.528Z,1.83
2018-11-07T20:51:35.818Z,2.07
2018-11-07T20:54:09.978Z,1.77
2018-11-07T20:56:44.083Z,1.87
2018-11-07T20:59:18.342Z,1.90
2018-11-07T21:01:52.764Z,1.80
2018-11-07T21:04:26.979Z,1.80
2018-11-07T21:07:01.262Z,2.10
2018-11-07T21:09:35.378Z,2.00
2018-11-07T21:12:09.573Z,1.97
2018-11-07T21:14:43.822Z,2.00
2018-11-07T21:17:17.911Z,1.80
2018-11-07T21:19:52.094Z,2.13
2018-11-07T21:22:26.500Z,1.97
2018-11-07T21:25:00.670Z,1.90
2018-11-07T21:27:34.946Z,2.17
2018-11-07T21:30:10.826Z,2.20
2018-11-07T21:32:45.130Z,1.83
2018-11-07T21:35:19.492Z,1.90
2018-11-07T21:37:53.617Z,2.00
2018-11-07T21:40:27.973Z,2.23
2018-11-07T21:43:02.422Z,1.90
2018-11-07T21:45:36.674Z,2.23
2018-11-07T21:48:10.786Z,2.37
2018-11-07T21:50:45.138Z,2.00
2018-11-07T21:53:19.241Z,2.00
2018-11-07T21:55:53.580Z,2.40
2018-11-07T21:58:27.778Z,2.00
2018-11-07T22:01:02.065Z,1.93
2018-11-07T22:03:36.490Z,1.83
2018-11-07T22:06:10.672Z,2.10
2018-11-07T22:08:44.841Z,2.60
2018-11-07T22:11:19.509Z,1.83
2018-11-07T22:13:53.697Z,2.03
2018-11-07T22:16:28.093Z,2.23
2018-11-07T22:19:02.346Z,2.17
2018-11-07T22:21:36.633Z,2.47
2018-11-07T22:24:10.964Z,2.20
2018-11-07T22:26:45.207Z,2.10
2018-11-07T22:29:19.367Z,1.90
2018-11-07T22:31:53.666Z,2.60
2018-11-07T22:34:28.039Z,2.20
2018-11-07T22:37:02.466Z,1.80
2018-11-07T22:39:36.779Z,2.37
2018-11-07T22:42:11.079Z,2.07
2018-11-07T22:44:45.390Z,1.93
2018-11-07T22:47:19.678Z,2.03
2018-11-07T22:49:53.974Z,1.90
2018-11-07T22:52:28.386Z,2.47
2018-11-07T22:55:02.690Z,1.50
2018-11-07T22:57:37.002Z,2.10
2018-11-07T23:00:21.662Z,1.97
2018-11-07T23:02:56.299Z,1.70
2018-11-07T23:05:30.511Z,1.90
2018-11-07T23:08:04.983Z,2.00
2018-11-07T23:10:39.278Z,2.13
2018-11-07T23:13:13.527Z,2.30
2018-11-07T23:15:48.822Z,2.30
2018-11-07T23:18:22.938Z,2.00
2018-11-07T23:20:57.275Z,2.77
2018-11-07T23:23:31.543Z,2.50
2018-11-07T23:26:05.713Z,2.47
2018-11-07T23:28:40.059Z,2.17
2018-11-07T23:31:14.326Z,2.13
2018-11-07T23:33:48.730Z,2.10
2018-11-07T23:36:22.881Z,2.27
2018-11-07T23:38:57.097Z,2.33
2018-11-07T23:41:31.344Z,2.40
2018-11-07T23:44:05.541Z,2.30
2018-11-07T23:46:39.822Z,2.47
2018-11-07T23:49:14.145Z,2.30
2018-11-07T23:51:48.961Z,2.20
2018-11-07T23:54:23.266Z,2.40
2018-11-07T23:56:57.641Z,2.30
2018-11-07T23:59:32.068Z,2.50
